EGPK

Glasgow Prestwick Airport

Glasgow, United Kingdom
METAR EGPK 162350Z 13002KT 9999 FEW022 SCT032 01/00 Q1020
Observed Flight Rules
Dec-16 @ 23:50 UTC (23 minutes ago) Visual Flight Rules
Wind Visibility Clouds
130° at 2 knots 10,000+ meters
  • Few at 2,200' AGL
  • Scattered at 3,200' AGL
Temperatures Readings
Current 1°C / 34°F
Dewpoint 0°C / 32°F
Humidity 93%
Altimeter 30.12" Hg
Pressure 1020 hPa
Elevation 20
METAR EGPK 162350Z 13002KT 9999 FEW022 SCT032 01/00 Q1020
Observed Flight Rules
Dec-16 @ 23:50 UTC
(23 minutes ago)
VFR
Wind Visibility
130° at 2 knots 10,000+ meters
Clouds
  • Few at 2,200' AGL
  • Scattered at 3,200' AGL
Temperature Dewpoint
1°C / 34°F 0°C / 32°F
Humidity Altimeter Pressure
93% 30.12" Hg 1020 hPa